sensor_id;sensor_type;location;lat;lon;timestamp;P1;durP1;ratioP1;P2;durP2;ratioP2
20468;SDS011;10393;52.460;13.322;2022-10-13T00:00:52;2.60;;;1.97;;
20468;SDS011;10393;52.460;13.322;2022-10-13T00:02:33;5.77;;;2.30;;
20468;SDS011;10393;52.460;13.322;2022-10-13T00:04:14;5.53;;;2.00;;
20468;SDS011;10393;52.460;13.322;2022-10-13T00:05:55;6.53;;;2.30;;
20468;SDS011;10393;52.460;13.322;2022-10-13T00:07:36;4.20;;;1.70;;
20468;SDS011;10393;52.460;13.322;2022-10-13T00:09:17;5.20;;;2.43;;
20468;SDS011;10393;52.460;13.322;2022-10-13T00:10:59;9.27;;;2.17;;
20468;SDS011;10393;52.460;13.322;2022-10-13T00:12:41;7.87;;;2.53;;
20468;SDS011;10393;52.460;13.322;2022-10-13T00:14:24;6.73;;;1.67;;
20468;SDS011;10393;52.460;13.322;2022-10-13T00:16:06;4.30;;;1.80;;
20468;SDS011;10393;52.460;13.322;2022-10-13T00:17:47;8.13;;;1.67;;
20468;SDS011;10393;52.460;13.322;2022-10-13T00:19:30;7.53;;;1.67;;
20468;SDS011;10393;52.460;13.322;2022-10-13T00:21:13;3.37;;;1.77;;
20468;SDS011;10393;52.460;13.322;2022-10-13T00:22:55;3.20;;;1.30;;
20468;SDS011;10393;52.460;13.322;2022-10-13T00:24:36;5.20;;;2.00;;
20468;SDS011;10393;52.460;13.322;2022-10-13T00:26:18;3.50;;;1.53;;
20468;SDS011;10393;52.460;13.322;2022-10-13T00:27:59;5.87;;;1.97;;
20468;SDS011;10393;52.460;13.322;2022-10-13T00:29:45;4.93;;;1.80;;
20468;SDS011;10393;52.460;13.322;2022-10-13T00:31:28;8.60;;;2.10;;
20468;SDS011;10393;52.460;13.322;2022-10-13T00:33:10;8.90;;;2.00;;
20468;SDS011;10393;52.460;13.322;2022-10-13T00:34:51;5.00;;;1.97;;
20468;SDS011;10393;52.460;13.322;2022-10-13T00:36:33;4.20;;;1.70;;
20468;SDS011;10393;52.460;13.322;2022-10-13T00:38:15;8.13;;;2.80;;
20468;SDS011;10393;52.460;13.322;2022-10-13T00:39:56;5.47;;;2.20;;
20468;SDS011;10393;52.460;13.322;2022-10-13T00:41:37;11.33;;;2.00;;
20468;SDS011;10393;52.460;13.322;2022-10-13T00:43:23;3.93;;;1.90;;
20468;SDS011;10393;52.460;13.322;2022-10-13T00:47:01;3.93;;;1.50;;
20468;SDS011;10393;52.460;13.322;2022-10-13T00:48:43;4.93;;;2.03;;
20468;SDS011;10393;52.460;13.322;2022-10-13T00:50:26;9.93;;;2.57;;
20468;SDS011;10393;52.460;13.322;2022-10-13T00:52:10;3.30;;;2.30;;
20468;SDS011;10393;52.460;13.322;2022-10-13T00:53:51;7.87;;;2.03;;
20468;SDS011;10393;52.460;13.322;2022-10-13T00:55:36;9.17;;;2.17;;
20468;SDS011;10393;52.460;13.322;2022-10-13T00:57:18;9.67;;;2.23;;
20468;SDS011;10393;52.460;13.322;2022-10-13T00:59:00;5.40;;;1.97;;
20468;SDS011;10393;52.460;13.322;2022-10-13T01:00:45;7.13;;;2.43;;
20468;SDS011;10393;52.460;13.322;2022-10-13T01:02:28;11.13;;;2.50;;
20468;SDS011;10393;52.460;13.322;2022-10-13T01:04:11;8.60;;;2.40;;
20468;SDS011;10393;52.460;13.322;2022-10-13T01:05:54;4.70;;;2.27;;
20468;SDS011;10393;52.460;13.322;2022-10-13T01:07:35;6.93;;;2.80;;
20468;SDS011;10393;52.460;13.322;2022-10-13T01:09:17;4.27;;;1.80;;
20468;SDS011;10393;52.460;13.322;2022-10-13T01:13:14;8.47;;;2.80;;
20468;SDS011;10393;52.460;13.322;2022-10-13T01:15:09;2.90;;;1.60;;
20468;SDS011;10393;52.460;13.322;2022-10-13T01:16:59;6.80;;;1.80;;
20468;SDS011;10393;52.460;13.322;2022-10-13T01:18:50;5.40;;;1.83;;
20468;SDS011;10393;52.460;13.322;2022-10-13T01:22:26;3.63;;;1.70;;
20468;SDS011;10393;52.460;13.322;2022-10-13T01:33:37;3.53;;;2.07;;
20468;SDS011;10393;52.460;13.322;2022-10-13T01:37:23;2.80;;;1.63;;
20468;SDS011;10393;52.460;13.322;2022-10-13T01:39:08;5.40;;;2.33;;
20468;SDS011;10393;52.460;13.322;2022-10-13T01:44:28;7.17;;;2.17;;
20468;SDS011;10393;52.460;13.322;2022-10-13T01:47:55;3.93;;;1.77;;
20468;SDS011;10393;52.460;13.322;2022-10-13T01:49:37;4.10;;;1.60;;
20468;SDS011;10393;52.460;13.322;2022-10-13T01:51:18;7.00;;;2.03;;
20468;SDS011;10393;52.460;13.322;2022-10-13T01:53:06;5.93;;;2.40;;
20468;SDS011;10393;52.460;13.322;2022-10-13T01:54:49;4.33;;;2.20;;
20468;SDS011;10393;52.460;13.322;2022-10-13T01:56:31;3.87;;;1.50;;
20468;SDS011;10393;52.460;13.322;2022-10-13T01:58:12;2.40;;;1.70;;
20468;SDS011;10393;52.460;13.322;2022-10-13T01:59:53;8.40;;;2.03;;
20468;SDS011;10393;52.460;13.322;2022-10-13T02:04:03;4.63;;;1.77;;
20468;SDS011;10393;52.460;13.322;2022-10-13T02:09:26;11.43;;;2.13;;
20468;SDS011;10393;52.460;13.322;2022-10-13T02:12:58;2.53;;;1.30;;
20468;SDS011;10393;52.460;13.322;2022-10-13T02:14:40;9.27;;;2.40;;
20468;SDS011;10393;52.460;13.322;2022-10-13T02:16:23;5.13;;;2.20;;
20468;SDS011;10393;52.460;13.322;2022-10-13T02:18:05;5.73;;;2.00;;
20468;SDS011;10393;52.460;13.322;2022-10-13T02:19:47;3.03;;;1.87;;
20468;SDS011;10393;52.460;13.322;2022-10-13T02:21:28;5.33;;;1.53;;
20468;SDS011;10393;52.460;13.322;2022-10-13T02:23:14;3.20;;;1.70;;
20468;SDS011;10393;52.460;13.322;2022-10-13T02:24:56;6.30;;;2.13;;
20468;SDS011;10393;52.460;13.322;2022-10-13T02:26:37;2.00;;;1.63;;
20468;SDS011;10393;52.460;13.322;2022-10-13T02:28:24;12.80;;;2.97;;
20468;SDS011;10393;52.460;13.322;2022-10-13T02:30:05;8.67;;;2.27;;
20468;SDS011;10393;52.460;13.322;2022-10-13T02:31:47;3.63;;;1.67;;
20468;SDS011;10393;52.460;13.322;2022-10-13T02:33:28;6.63;;;1.93;;
20468;SDS011;10393;52.460;13.322;2022-10-13T02:35:09;6.13;;;1.60;;
20468;SDS011;10393;52.460;13.322;2022-10-13T02:36:50;7.80;;;2.23;;
20468;SDS011;10393;52.460;13.322;2022-10-13T02:38:31;11.10;;;2.00;;
20468;SDS011;10393;52.460;13.322;2022-10-13T02:40:12;2.67;;;1.80;;
20468;SDS011;10393;52.460;13.322;2022-10-13T02:41:54;3.53;;;1.57;;
20468;SDS011;10393;52.460;13.322;2022-10-13T02:43:35;4.90;;;1.57;;
20468;SDS011;10393;52.460;13.322;2022-10-13T02:45:17;7.43;;;1.43;;
20468;SDS011;10393;52.460;13.322;2022-10-13T02:46:59;3.90;;;1.57;;
20468;SDS011;10393;52.460;13.322;2022-10-13T02:48:41;3.00;;;1.77;;
20468;SDS011;10393;52.460;13.322;2022-10-13T02:50:22;10.17;;;2.90;;
20468;SDS011;10393;52.460;13.322;2022-10-13T02:52:03;10.67;;;2.40;;
20468;SDS011;10393;52.460;13.322;2022-10-13T02:53:44;9.60;;;3.13;;
20468;SDS011;10393;52.460;13.322;2022-10-13T02:55:26;5.93;;;1.93;;
20468;SDS011;10393;52.460;13.322;2022-10-13T02:57:09;3.53;;;2.03;;
20468;SDS011;10393;52.460;13.322;2022-10-13T02:58:51;3.23;;;2.47;;
20468;SDS011;10393;52.460;13.322;2022-10-13T03:00:32;4.53;;;1.77;;
20468;SDS011;10393;52.460;13.322;2022-10-13T03:02:13;5.07;;;2.17;;
20468;SDS011;10393;52.460;13.322;2022-10-13T03:03:54;4.60;;;1.97;;
20468;SDS011;10393;52.460;13.322;2022-10-13T03:05:35;3.70;;;1.87;;
20468;SDS011;10393;52.460;13.322;2022-10-13T03:07:17;8.53;;;2.47;;
20468;SDS011;10393;52.460;13.322;2022-10-13T03:08:58;10.40;;;2.27;;
20468;SDS011;10393;52.460;13.322;2022-10-13T03:10:39;5.20;;;2.20;;
20468;SDS011;10393;52.460;13.322;2022-10-13T03:12:20;5.93;;;2.47;;
20468;SDS011;10393;52.460;13.322;2022-10-13T03:14:02;10.10;;;2.83;;
20468;SDS011;10393;52.460;13.322;2022-10-13T03:15:43;3.90;;;2.00;;
20468;SDS011;10393;52.460;13.322;2022-10-13T03:17:25;4.63;;;2.37;;
20468;SDS011;10393;52.460;13.322;2022-10-13T03:19:06;4.17;;;1.67;;
20468;SDS011;10393;52.460;13.322;2022-10-13T03:20:54;2.83;;;1.80;;
20468;SDS011;10393;52.460;13.322;2022-10-13T03:22:35;2.17;;;1.93;;
20468;SDS011;10393;52.460;13.322;2022-10-13T03:24:17;7.47;;;2.37;;
20468;SDS011;10393;52.460;13.322;2022-10-13T03:25:58;11.53;;;2.87;;
20468;SDS011;10393;52.460;13.322;2022-10-13T03:27:39;7.30;;;2.40;;
20468;SDS011;10393;52.460;13.322;2022-10-13T03:29:20;2.90;;;1.60;;
20468;SDS011;10393;52.460;13.322;2022-10-13T03:31:02;7.13;;;2.47;;
20468;SDS011;10393;52.460;13.322;2022-10-13T03:32:44;2.23;;;1.50;;
20468;SDS011;10393;52.460;13.322;2022-10-13T03:34:25;8.13;;;1.47;;
20468;SDS011;10393;52.460;13.322;2022-10-13T03:36:09;6.53;;;2.17;;
20468;SDS011;10393;52.460;13.322;2022-10-13T03:37:53;5.80;;;2.73;;
20468;SDS011;10393;52.460;13.322;2022-10-13T03:39:35;8.30;;;1.27;;
20468;SDS011;10393;52.460;13.322;2022-10-13T03:41:17;4.30;;;1.90;;
20468;SDS011;10393;52.460;13.322;2022-10-13T03:43:03;4.27;;;1.33;;
20468;SDS011;10393;52.460;13.322;2022-10-13T03:44:44;5.97;;;2.23;;
20468;SDS011;10393;52.460;13.322;2022-10-13T03:46:26;5.60;;;2.10;;
20468;SDS011;10393;52.460;13.322;2022-10-13T03:48:09;4.00;;;1.63;;
20468;SDS011;10393;52.460;13.322;2022-10-13T03:49:50;5.17;;;2.17;;
20468;SDS011;10393;52.460;13.322;2022-10-13T03:51:34;6.83;;;2.00;;
20468;SDS011;10393;52.460;13.322;2022-10-13T03:53:15;8.27;;;2.60;;
20468;SDS011;10393;52.460;13.322;2022-10-13T03:54:56;4.20;;;2.43;;
20468;SDS011;10393;52.460;13.322;2022-10-13T03:56:37;14.30;;;2.93;;
20468;SDS011;10393;52.460;13.322;2022-10-13T03:58:19;8.07;;;2.17;;
20468;SDS011;10393;52.460;13.322;2022-10-13T04:00:03;3.97;;;2.50;;
20468;SDS011;10393;52.460;13.322;2022-10-13T04:01:52;9.70;;;2.60;;
20468;SDS011;10393;52.460;13.322;2022-10-13T04:03:33;8.33;;;4.03;;
20468;SDS011;10393;52.460;13.322;2022-10-13T04:05:15;4.27;;;2.23;;
20468;SDS011;10393;52.460;13.322;2022-10-13T04:06:56;11.67;;;2.47;;
20468;SDS011;10393;52.460;13.322;2022-10-13T04:08:37;9.50;;;2.40;;
20468;SDS011;10393;52.460;13.322;2022-10-13T04:10:18;2.40;;;1.97;;
20468;SDS011;10393;52.460;13.322;2022-10-13T04:12:02;6.90;;;1.90;;
20468;SDS011;10393;52.460;13.322;2022-10-13T04:13:44;2.07;;;1.83;;
20468;SDS011;10393;52.460;13.322;2022-10-13T04:15:25;5.37;;;2.30;;
20468;SDS011;10393;52.460;13.322;2022-10-13T04:17:06;5.73;;;2.90;;
20468;SDS011;10393;52.460;13.322;2022-10-13T04:18:51;10.77;;;2.50;;
20468;SDS011;10393;52.460;13.322;2022-10-13T04:20:37;19.20;;;3.30;;
20468;SDS011;10393;52.460;13.322;2022-10-13T04:22:18;6.40;;;2.63;;
20468;SDS011;10393;52.460;13.322;2022-10-13T04:24:01;14.33;;;3.27;;
20468;SDS011;10393;52.460;13.322;2022-10-13T04:25:43;7.50;;;2.30;;
20468;SDS011;10393;52.460;13.322;2022-10-13T04:27:24;3.60;;;1.63;;
20468;SDS011;10393;52.460;13.322;2022-10-13T04:29:06;6.87;;;2.70;;
20468;SDS011;10393;52.460;13.322;2022-10-13T04:30:48;7.43;;;2.57;;
20468;SDS011;10393;52.460;13.322;2022-10-13T04:32:29;6.03;;;3.23;;
20468;SDS011;10393;52.460;13.322;2022-10-13T04:34:13;7.57;;;2.47;;
20468;SDS011;10393;52.460;13.322;2022-10-13T04:35:55;12.47;;;2.17;;
20468;SDS011;10393;52.460;13.322;2022-10-13T04:37:36;7.03;;;2.57;;
20468;SDS011;10393;52.460;13.322;2022-10-13T04:39:19;7.93;;;2.57;;
20468;SDS011;10393;52.460;13.322;2022-10-13T04:41:04;4.10;;;2.30;;
20468;SDS011;10393;52.460;13.322;2022-10-13T04:42:45;4.33;;;2.27;;
20468;SDS011;10393;52.460;13.322;2022-10-13T04:44:26;4.43;;;2.57;;
20468;SDS011;10393;52.460;13.322;2022-10-13T04:46:09;6.27;;;1.93;;
20468;SDS011;10393;52.460;13.322;2022-10-13T04:47:52;7.10;;;2.50;;
20468;SDS011;10393;52.460;13.322;2022-10-13T04:49:35;5.67;;;2.47;;
20468;SDS011;10393;52.460;13.322;2022-10-13T04:51:17;9.47;;;3.67;;
20468;SDS011;10393;52.460;13.322;2022-10-13T04:52:58;8.83;;;2.97;;
20468;SDS011;10393;52.460;13.322;2022-10-13T04:54:39;21.10;;;2.80;;
20468;SDS011;10393;52.460;13.322;2022-10-13T04:56:21;7.40;;;2.73;;
20468;SDS011;10393;52.460;13.322;2022-10-13T04:58:02;4.87;;;2.17;;
20468;SDS011;10393;52.460;13.322;2022-10-13T04:59:43;7.80;;;3.03;;
20468;SDS011;10393;52.460;13.322;2022-10-13T05:01:25;7.20;;;2.73;;
20468;SDS011;10393;52.460;13.322;2022-10-13T05:03:06;19.23;;;2.97;;
20468;SDS011;10393;52.460;13.322;2022-10-13T05:04:48;6.17;;;2.30;;
20468;SDS011;10393;52.460;13.322;2022-10-13T05:06:33;5.53;;;3.50;;
20468;SDS011;10393;52.460;13.322;2022-10-13T05:08:15;8.70;;;2.70;;
20468;SDS011;10393;52.460;13.322;2022-10-13T05:09:56;9.43;;;2.90;;
20468;SDS011;10393;52.460;13.322;2022-10-13T05:11:37;6.73;;;2.63;;
20468;SDS011;10393;52.460;13.322;2022-10-13T05:13:18;6.00;;;2.97;;
20468;SDS011;10393;52.460;13.322;2022-10-13T05:15:02;6.43;;;3.13;;
20468;SDS011;10393;52.460;13.322;2022-10-13T05:16:44;7.87;;;2.87;;
20468;SDS011;10393;52.460;13.322;2022-10-13T05:18:28;4.93;;;2.80;;
20468;SDS011;10393;52.460;13.322;2022-10-13T05:20:10;3.20;;;2.17;;
20468;SDS011;10393;52.460;13.322;2022-10-13T05:21:52;6.27;;;3.13;;
20468;SDS011;10393;52.460;13.322;2022-10-13T05:23:33;5.53;;;2.97;;
20468;SDS011;10393;52.460;13.322;2022-10-13T05:25:14;3.10;;;2.50;;
20468;SDS011;10393;52.460;13.322;2022-10-13T05:26:56;6.47;;;3.07;;
20468;SDS011;10393;52.460;13.322;2022-10-13T05:28:37;4.80;;;2.63;;
20468;SDS011;10393;52.460;13.322;2022-10-13T05:30:18;8.37;;;3.13;;
20468;SDS011;10393;52.460;13.322;2022-10-13T05:31:59;7.67;;;2.50;;
20468;SDS011;10393;52.460;13.322;2022-10-13T05:33:41;4.03;;;2.77;;
20468;SDS011;10393;52.460;13.322;2022-10-13T05:35:23;8.30;;;3.00;;
20468;SDS011;10393;52.460;13.322;2022-10-13T05:37:04;10.43;;;3.90;;
20468;SDS011;10393;52.460;13.322;2022-10-13T05:38:50;6.73;;;3.33;;
20468;SDS011;10393;52.460;13.322;2022-10-13T05:40:31;7.17;;;2.73;;
20468;SDS011;10393;52.460;13.322;2022-10-13T05:42:13;8.87;;;2.87;;
20468;SDS011;10393;52.460;13.322;2022-10-13T05:44:05;9.63;;;4.17;;
20468;SDS011;10393;52.460;13.322;2022-10-13T05:45:46;15.47;;;4.53;;
20468;SDS011;10393;52.460;13.322;2022-10-13T05:47:28;13.00;;;3.67;;
20468;SDS011;10393;52.460;13.322;2022-10-13T05:49:09;6.83;;;2.77;;
20468;SDS011;10393;52.460;13.322;2022-10-13T05:50:50;4.90;;;3.00;;
20468;SDS011;10393;52.460;13.322;2022-10-13T05:52:32;7.03;;;2.63;;
20468;SDS011;10393;52.460;13.322;2022-10-13T05:54:18;5.23;;;3.00;;
20468;SDS011;10393;52.460;13.322;2022-10-13T05:56:00;8.40;;;3.10;;
20468;SDS011;10393;52.460;13.322;2022-10-13T05:57:46;8.60;;;2.73;;
20468;SDS011;10393;52.460;13.322;2022-10-13T05:59:29;6.77;;;3.53;;
20468;SDS011;10393;52.460;13.322;2022-10-13T06:01:12;9.67;;;3.93;;
20468;SDS011;10393;52.460;13.322;2022-10-13T06:03:00;7.20;;;2.87;;
20468;SDS011;10393;52.460;13.322;2022-10-13T06:04:44;8.77;;;3.77;;
20468;SDS011;10393;52.460;13.322;2022-10-13T06:06:26;7.00;;;3.40;;
20468;SDS011;10393;52.460;13.322;2022-10-13T06:08:08;9.47;;;3.77;;
20468;SDS011;10393;52.460;13.322;2022-10-13T06:09:50;7.93;;;3.47;;
20468;SDS011;10393;52.460;13.322;2022-10-13T06:11:31;3.67;;;2.63;;
20468;SDS011;10393;52.460;13.322;2022-10-13T06:13:13;12.83;;;3.27;;
20468;SDS011;10393;52.460;13.322;2022-10-13T06:14:54;6.13;;;3.57;;
20468;SDS011;10393;52.460;13.322;2022-10-13T06:16:35;9.93;;;3.70;;
20468;SDS011;10393;52.460;13.322;2022-10-13T06:18:16;15.77;;;3.87;;
20468;SDS011;10393;52.460;13.322;2022-10-13T06:19:57;6.83;;;2.83;;
20468;SDS011;10393;52.460;13.322;2022-10-13T06:21:39;9.63;;;3.67;;
20468;SDS011;10393;52.460;13.322;2022-10-13T06:23:20;10.93;;;4.27;;
20468;SDS011;10393;52.460;13.322;2022-10-13T06:25:01;6.97;;;3.50;;
20468;SDS011;10393;52.460;13.322;2022-10-13T06:26:43;5.27;;;4.23;;
20468;SDS011;10393;52.460;13.322;2022-10-13T06:28:25;4.43;;;2.95;;
20468;SDS011;10393;52.460;13.322;2022-10-13T06:30:07;7.20;;;3.13;;
20468;SDS011;10393;52.460;13.322;2022-10-13T06:31:50;6.83;;;4.07;;
20468;SDS011;10393;52.460;13.322;2022-10-13T06:33:31;10.53;;;4.07;;
20468;SDS011;10393;52.460;13.322;2022-10-13T06:35:13;10.63;;;4.43;;
20468;SDS011;10393;52.460;13.322;2022-10-13T06:36:54;8.67;;;3.93;;
20468;SDS011;10393;52.460;13.322;2022-10-13T06:38:35;44.23;;;15.80;;
20468;SDS011;10393;52.460;13.322;2022-10-13T06:40:16;11.27;;;5.20;;
20468;SDS011;10393;52.460;13.322;2022-10-13T06:41:58;16.23;;;7.93;;
20468;SDS011;10393;52.460;13.322;2022-10-13T06:43:42;10.20;;;4.27;;
20468;SDS011;10393;52.460;13.322;2022-10-13T06:45:24;11.40;;;4.30;;
20468;SDS011;10393;52.460;13.322;2022-10-13T06:47:05;12.43;;;3.30;;
20468;SDS011;10393;52.460;13.322;2022-10-13T06:48:50;5.93;;;3.60;;
20468;SDS011;10393;52.460;13.322;2022-10-13T06:50:31;10.87;;;4.53;;
20468;SDS011;10393;52.460;13.322;2022-10-13T06:52:13;6.43;;;3.70;;
20468;SDS011;10393;52.460;13.322;2022-10-13T06:53:54;10.30;;;5.33;;
20468;SDS011;10393;52.460;13.322;2022-10-13T06:55:39;5.77;;;4.23;;
20468;SDS011;10393;52.460;13.322;2022-10-13T06:57:22;8.05;;;3.97;;
20468;SDS011;10393;52.460;13.322;2022-10-13T06:59:03;18.87;;;4.47;;
20468;SDS011;10393;52.460;13.322;2022-10-13T07:00:45;13.07;;;5.07;;
20468;SDS011;10393;52.460;13.322;2022-10-13T07:02:27;5.83;;;3.83;;
20468;SDS011;10393;52.460;13.322;2022-10-13T07:04:08;5.90;;;3.13;;
20468;SDS011;10393;52.460;13.322;2022-10-13T07:05:49;6.07;;;3.33;;
20468;SDS011;10393;52.460;13.322;2022-10-13T07:07:30;15.97;;;3.90;;
20468;SDS011;10393;52.460;13.322;2022-10-13T07:09:12;8.43;;;4.80;;
20468;SDS011;10393;52.460;13.322;2022-10-13T07:10:53;11.97;;;4.47;;
20468;SDS011;10393;52.460;13.322;2022-10-13T07:12:34;17.00;;;5.00;;
20468;SDS011;10393;52.460;13.322;2022-10-13T07:14:16;16.93;;;4.97;;
20468;SDS011;10393;52.460;13.322;2022-10-13T07:15:57;12.77;;;5.22;;
20468;SDS011;10393;52.460;13.322;2022-10-13T07:17:38;12.20;;;5.32;;
20468;SDS011;10393;52.460;13.322;2022-10-13T07:19:19;10.43;;;4.78;;
20468;SDS011;10393;52.460;13.322;2022-10-13T07:21:01;13.98;;;4.88;;
20468;SDS011;10393;52.460;13.322;2022-10-13T07:22:42;10.75;;;4.93;;
20468;SDS011;10393;52.460;13.322;2022-10-13T07:24:24;13.63;;;4.50;;
20468;SDS011;10393;52.460;13.322;2022-10-13T07:26:09;10.25;;;4.80;;
20468;SDS011;10393;52.460;13.322;2022-10-13T07:27:50;7.07;;;4.78;;
20468;SDS011;10393;52.460;13.322;2022-10-13T07:29:31;11.35;;;5.20;;
20468;SDS011;10393;52.460;13.322;2022-10-13T07:31:14;10.02;;;5.03;;
20468;SDS011;10393;52.460;13.322;2022-10-13T07:32:55;8.13;;;4.53;;
20468;SDS011;10393;52.460;13.322;2022-10-13T07:34:36;13.45;;;4.55;;
20468;SDS011;10393;52.460;13.322;2022-10-13T07:36:18;9.15;;;4.97;;
20468;SDS011;10393;52.460;13.322;2022-10-13T07:37:59;12.35;;;5.35;;
20468;SDS011;10393;52.460;13.322;2022-10-13T07:39:41;12.82;;;4.55;;
20468;SDS011;10393;52.460;13.322;2022-10-13T07:41:22;10.45;;;4.75;;
20468;SDS011;10393;52.460;13.322;2022-10-13T07:43:07;18.02;;;5.40;;
20468;SDS011;10393;52.460;13.322;2022-10-13T07:44:48;19.08;;;5.97;;
20468;SDS011;10393;52.460;13.322;2022-10-13T07:46:29;13.40;;;5.60;;
20468;SDS011;10393;52.460;13.322;2022-10-13T07:48:10;13.20;;;5.28;;
20468;SDS011;10393;52.460;13.322;2022-10-13T07:49:52;13.35;;;5.40;;
20468;SDS011;10393;52.460;13.322;2022-10-13T07:51:34;9.82;;;5.05;;
20468;SDS011;10393;52.460;13.322;2022-10-13T07:53:15;9.85;;;5.35;;
20468;SDS011;10393;52.460;13.322;2022-10-13T07:54:57;14.13;;;5.57;;
20468;SDS011;10393;52.460;13.322;2022-10-13T07:56:38;10.13;;;5.18;;
20468;SDS011;10393;52.460;13.322;2022-10-13T07:58:20;9.73;;;5.10;;
20468;SDS011;10393;52.460;13.322;2022-10-13T08:00:02;13.95;;;5.20;;
20468;SDS011;10393;52.460;13.322;2022-10-13T08:01:52;14.32;;;5.78;;
20468;SDS011;10393;52.460;13.322;2022-10-13T08:03:33;11.25;;;5.45;;
20468;SDS011;10393;52.460;13.322;2022-10-13T08:05:15;7.93;;;5.28;;
20468;SDS011;10393;52.460;13.322;2022-10-13T08:06:56;9.40;;;4.65;;
20468;SDS011;10393;52.460;13.322;2022-10-13T08:08:37;9.10;;;5.25;;
20468;SDS011;10393;52.460;13.322;2022-10-13T08:10:19;14.10;;;4.82;;
20468;SDS011;10393;52.460;13.322;2022-10-13T08:12:01;13.20;;;5.22;;
20468;SDS011;10393;52.460;13.322;2022-10-13T08:13:48;11.38;;;5.15;;
20468;SDS011;10393;52.460;13.322;2022-10-13T08:15:39;9.95;;;5.35;;
20468;SDS011;10393;52.460;13.322;2022-10-13T08:17:21;11.73;;;5.18;;
20468;SDS011;10393;52.460;13.322;2022-10-13T08:19:02;10.43;;;4.68;;
20468;SDS011;10393;52.460;13.322;2022-10-13T08:20:44;9.23;;;5.60;;
20468;SDS011;10393;52.460;13.322;2022-10-13T08:22:25;10.38;;;5.00;;
20468;SDS011;10393;52.460;13.322;2022-10-13T08:24:08;7.93;;;4.65;;
20468;SDS011;10393;52.460;13.322;2022-10-13T08:25:52;10.18;;;5.15;;
20468;SDS011;10393;52.460;13.322;2022-10-13T08:27:34;10.25;;;4.88;;
20468;SDS011;10393;52.460;13.322;2022-10-13T08:29:16;10.52;;;5.22;;
20468;SDS011;10393;52.460;13.322;2022-10-13T08:30:58;7.65;;;5.18;;
20468;SDS011;10393;52.460;13.322;2022-10-13T08:32:39;15.98;;;6.00;;
20468;SDS011;10393;52.460;13.322;2022-10-13T08:34:21;9.90;;;4.95;;
20468;SDS011;10393;52.460;13.322;2022-10-13T08:36:02;8.25;;;4.90;;
20468;SDS011;10393;52.460;13.322;2022-10-13T08:37:44;11.88;;;5.30;;
20468;SDS011;10393;52.460;13.322;2022-10-13T08:39:25;11.43;;;5.88;;
20468;SDS011;10393;52.460;13.322;2022-10-13T08:41:13;10.00;;;4.82;;
20468;SDS011;10393;52.460;13.322;2022-10-13T08:42:56;15.45;;;5.82;;
20468;SDS011;10393;52.460;13.322;2022-10-13T08:44:41;14.43;;;5.32;;
20468;SDS011;10393;52.460;13.322;2022-10-13T08:46:29;14.43;;;5.70;;
20468;SDS011;10393;52.460;13.322;2022-10-13T08:50:24;9.45;;;5.05;;
20468;SDS011;10393;52.460;13.322;2022-10-13T08:52:08;11.73;;;6.00;;
20468;SDS011;10393;52.460;13.322;2022-10-13T08:53:53;8.73;;;5.45;;
20468;SDS011;10393;52.460;13.322;2022-10-13T08:55:38;8.95;;;6.00;;
20468;SDS011;10393;52.460;13.322;2022-10-13T08:57:21;9.88;;;5.35;;
20468;SDS011;10393;52.460;13.322;2022-10-13T08:59:03;9.13;;;5.53;;
20468;SDS011;10393;52.460;13.322;2022-10-13T09:00:45;13.00;;;6.32;;
20468;SDS011;10393;52.460;13.322;2022-10-13T09:02:30;9.98;;;5.75;;
20468;SDS011;10393;52.460;13.322;2022-10-13T09:04:25;16.00;;;6.63;;
20468;SDS011;10393;52.460;13.322;2022-10-13T09:07:49;14.10;;;6.35;;
20468;SDS011;10393;52.460;13.322;2022-10-13T09:09:32;10.60;;;6.13;;
20468;SDS011;10393;52.460;13.322;2022-10-13T09:11:14;11.70;;;6.00;;
20468;SDS011;10393;52.460;13.322;2022-10-13T09:12:55;12.18;;;5.60;;
20468;SDS011;10393;52.460;13.322;2022-10-13T09:14:38;7.63;;;5.50;;
20468;SDS011;10393;52.460;13.322;2022-10-13T09:16:54;9.15;;;5.55;;
20468;SDS011;10393;52.460;13.322;2022-10-13T09:18:28;8.23;;;5.40;;
20468;SDS011;10393;52.460;13.322;2022-10-13T09:20:18;8.77;;;5.90;;
20468;SDS011;10393;52.460;13.322;2022-10-13T09:22:20;10.73;;;5.93;;
20468;SDS011;10393;52.460;13.322;2022-10-13T09:24:06;12.18;;;6.07;;
20468;SDS011;10393;52.460;13.322;2022-10-13T09:25:49;11.50;;;5.63;;
20468;SDS011;10393;52.460;13.322;2022-10-13T09:27:32;14.80;;;6.05;;
20468;SDS011;10393;52.460;13.322;2022-10-13T09:29:24;12.15;;;6.45;;
20468;SDS011;10393;52.460;13.322;2022-10-13T09:31:12;13.32;;;6.70;;
20468;SDS011;10393;52.460;13.322;2022-10-13T09:34:49;16.40;;;7.28;;
20468;SDS011;10393;52.460;13.322;2022-10-13T09:36:31;13.20;;;6.78;;
20468;SDS011;10393;52.460;13.322;2022-10-13T09:39:59;17.50;;;5.97;;
20468;SDS011;10393;52.460;13.322;2022-10-13T09:41:42;14.07;;;6.80;;
20468;SDS011;10393;52.460;13.322;2022-10-13T09:43:32;13.38;;;7.05;;
20468;SDS011;10393;52.460;13.322;2022-10-13T09:45:16;19.90;;;9.07;;
20468;SDS011;10393;52.460;13.322;2022-10-13T09:47:00;14.15;;;6.30;;
20468;SDS011;10393;52.460;13.322;2022-10-13T09:48:42;17.23;;;7.57;;
20468;SDS011;10393;52.460;13.322;2022-10-13T09:50:28;17.17;;;7.18;;
20468;SDS011;10393;52.460;13.322;2022-10-13T09:53:52;14.20;;;7.18;;
20468;SDS011;10393;52.460;13.322;2022-10-13T09:55:33;14.82;;;6.78;;
20468;SDS011;10393;52.460;13.322;2022-10-13T09:57:59;11.40;;;6.47;;
20468;SDS011;10393;52.460;13.322;2022-10-13T10:01:07;17.00;;;7.25;;
20468;SDS011;10393;52.460;13.322;2022-10-13T10:03:04;11.90;;;6.78;;
20468;SDS011;10393;52.460;13.322;2022-10-13T10:04:46;11.80;;;6.30;;
20468;SDS011;10393;52.460;13.322;2022-10-13T10:06:28;15.68;;;6.85;;
20468;SDS011;10393;52.460;13.322;2022-10-13T10:08:20;16.65;;;7.35;;
20468;SDS011;10393;52.460;13.322;2022-10-13T10:10:23;14.60;;;7.07;;
20468;SDS011;10393;52.460;13.322;2022-10-13T10:12:05;14.32;;;6.35;;
20468;SDS011;10393;52.460;13.322;2022-10-13T10:13:46;9.93;;;6.22;;
20468;SDS011;10393;52.460;13.322;2022-10-13T10:16:10;16.33;;;7.13;;
20468;SDS011;10393;52.460;13.322;2022-10-13T10:17:41;16.60;;;7.15;;
20468;SDS011;10393;52.460;13.322;2022-10-13T10:21:06;20.70;;;6.85;;
20468;SDS011;10393;52.460;13.322;2022-10-13T10:22:59;15.05;;;7.50;;
20468;SDS011;10393;52.460;13.322;2022-10-13T10:30:18;11.60;;;6.38;;
20468;SDS011;10393;52.460;13.322;2022-10-13T10:33:48;12.77;;;6.07;;
20468;SDS011;10393;52.460;13.322;2022-10-13T10:44:42;12.52;;;6.18;;
20468;SDS011;10393;52.460;13.322;2022-10-13T10:46:27;14.52;;;7.47;;
20468;SDS011;10393;52.460;13.322;2022-10-13T10:48:17;11.52;;;6.78;;
20468;SDS011;10393;52.460;13.322;2022-10-13T10:50:01;15.48;;;6.82;;
20468;SDS011;10393;52.460;13.322;2022-10-13T10:51:42;13.55;;;6.53;;
20468;SDS011;10393;52.460;13.322;2022-10-13T10:53:36;17.60;;;6.60;;
20468;SDS011;10393;52.460;13.322;2022-10-13T10:55:20;12.57;;;6.07;;
20468;SDS011;10393;52.460;13.322;2022-10-13T10:59:01;14.18;;;6.70;;
20468;SDS011;10393;52.460;13.322;2022-10-13T11:01:29;10.45;;;5.90;;
20468;SDS011;10393;52.460;13.322;2022-10-13T11:04:55;10.85;;;5.55;;
20468;SDS011;10393;52.460;13.322;2022-10-13T11:06:38;14.23;;;6.75;;
20468;SDS011;10393;52.460;13.322;2022-10-13T11:10:20;13.68;;;6.47;;
20468;SDS011;10393;52.460;13.322;2022-10-13T11:12:02;12.57;;;6.60;;
20468;SDS011;10393;52.460;13.322;2022-10-13T11:13:51;9.90;;;6.03;;
20468;SDS011;10393;52.460;13.322;2022-10-13T11:15:42;17.33;;;6.82;;